createdAt,value
2023-02-11T06:12:21.494Z,0.857143
2023-02-11T06:13:21.529Z,0.857143
2023-02-11T06:14:21.561Z,0.857143
2023-02-11T06:15:21.592Z,1.71429
2023-02-11T06:16:21.661Z,1.71429
2023-02-11T06:17:21.661Z,2.5
2023-02-11T06:18:21.696Z,2.5
2023-02-11T06:19:21.740Z,3.35714
2023-02-11T06:20:21.760Z,4.21429
2023-02-11T06:21:21.798Z,5
2023-02-11T06:22:21.829Z,5.85714
2023-02-11T06:23:21.860Z,6.71429
2023-02-11T06:24:47.849Z,8.35714
2023-02-11T06:25:21.919Z,10
2023-02-11T06:26:21.954Z,11.7143
2023-02-11T06:27:21.999Z,14.2143
2023-02-11T06:28:22.062Z,17.5
2023-02-11T06:29:22.058Z,20
2023-02-11T06:30:22.102Z,23.3571
2023-02-11T06:31:22.257Z,24.2143
2023-02-11T06:32:42.345Z,25.8571
2023-02-11T06:33:22.213Z,31.7143
2023-02-11T06:34:22.234Z,29.2143
2023-02-11T06:35:22.280Z,32.5
2023-02-11T06:36:22.305Z,32.5
2023-02-11T06:37:22.338Z,34.2143
2023-02-11T06:38:22.366Z,38.3571
2023-02-11T06:39:22.399Z,41.7143
2023-02-11T06:40:22.441Z,45.8571
2023-02-11T06:41:22.477Z,53.3571
2023-02-11T06:42:22.504Z,57.5
2023-02-11T06:43:22.539Z,68.3571
2023-02-11T06:44:22.581Z,72.5
2023-02-11T06:45:22.613Z,80
2023-02-11T06:46:22.689Z,77.5
2023-02-11T06:47:22.672Z,79.2143
2023-02-11T06:48:22.710Z,86.7143
2023-02-11T06:49:22.736Z,87.5
2023-02-11T06:50:22.782Z,75
2023-02-11T06:51:22.805Z,82.5
2023-02-11T06:52:22.846Z,76.7143
2023-02-11T06:53:22.883Z,87.5
2023-02-11T06:54:22.923Z,93.3571
2023-02-11T06:55:22.953Z,93.3571
2023-02-11T06:56:22.989Z,97.5
2023-02-11T06:57:23.028Z,99.2143
2023-02-11T06:58:23.063Z,112.5
2023-02-11T06:59:23.105Z,120
2023-02-11T07:00:23.139Z,125
2023-02-11T07:01:23.202Z,147.5
2023-02-11T07:02:23.184Z,137.5
2023-02-11T07:03:23.224Z,138.357
2023-02-11T07:04:23.258Z,135.857
2023-02-11T07:05:23.288Z,155.857
2023-02-11T07:06:23.326Z,142.5
2023-02-11T07:07:23.372Z,145
2023-02-11T07:08:23.393Z,164.214
2023-02-11T07:09:23.429Z,166.714
2023-02-11T07:10:23.467Z,173.357
2023-02-11T07:11:23.500Z,194.214
2023-02-11T07:12:23.529Z,180
2023-02-11T07:13:23.574Z,209.214
2023-02-11T07:14:23.618Z,201.714
2023-02-11T07:15:23.629Z,205.857
2023-02-11T07:16:23.787Z,253.357
2023-02-11T07:17:23.700Z,258.357
2023-02-11T07:18:23.731Z,259.214
2023-02-11T07:19:23.777Z,268.357
2023-02-11T07:20:23.808Z,313.357
2023-02-11T07:21:23.846Z,296.714
2023-02-11T07:22:23.892Z,293.357
2023-02-11T07:23:23.915Z,327.5
2023-02-11T07:24:23.954Z,345
2023-02-11T07:25:23.996Z,320.857
2023-02-11T07:26:24.087Z,374.214
2023-02-11T07:27:24.068Z,421.714
2023-02-11T07:28:24.130Z,594.214
2023-02-11T07:29:24.140Z,511.714
2023-02-11T07:30:24.171Z,515.857
2023-02-11T07:31:24.358Z,417.5
2023-02-11T07:32:24.219Z,363.357
2023-02-11T07:33:24.257Z,385.857
2023-02-11T07:34:24.334Z,430.857
2023-02-11T07:35:24.330Z,579.214
2023-02-11T07:36:24.366Z,557.5
2023-02-11T07:37:24.402Z,696.714
2023-02-11T07:38:24.438Z,650.857
2023-02-11T07:39:24.474Z,674.214
2023-02-11T07:40:24.501Z,657.5
2023-02-11T07:41:24.593Z,602.5
2023-02-11T07:42:24.575Z,570.857
2023-02-11T07:43:24.604Z,550.857
2023-02-11T07:44:24.645Z,573.357
2023-02-11T07:45:24.688Z,441.714
2023-02-11T07:46:24.828Z,355
2023-02-11T07:47:24.737Z,352.5
2023-02-11T07:48:24.770Z,321.714
2023-02-11T07:49:24.808Z,325
2023-02-11T07:50:24.835Z,308.357
2023-02-11T07:51:24.881Z,320.857
2023-02-11T07:52:24.900Z,312.5
2023-02-11T07:53:24.937Z,413.357
2023-02-11T07:54:24.974Z,455
2023-02-11T07:55:25.000Z,476.714
2023-02-11T07:56:25.044Z,543.357
2023-02-11T07:57:25.070Z,361.714
2023-02-11T07:58:25.105Z,301.714
2023-02-11T07:59:25.131Z,286.714
2023-02-11T08:00:25.175Z,244.214
2023-02-11T08:01:25.443Z,217.5
2023-02-11T08:02:25.339Z,245
2023-02-11T08:03:25.276Z,258.357
2023-02-11T08:04:25.311Z,301.714
2023-02-11T08:05:25.349Z,310.857
2023-02-11T08:06:25.450Z,313.357
2023-02-11T08:07:25.458Z,351.714
2023-02-11T08:08:25.446Z,425
2023-02-11T08:09:25.491Z,431.714
2023-02-11T08:10:25.523Z,447.5
2023-02-11T08:11:25.573Z,417.5
2023-02-11T08:12:25.619Z,393.357
2023-02-11T08:13:25.632Z,394.214
2023-02-11T08:14:25.671Z,336.714
2023-02-11T08:15:25.696Z,351.714
2023-02-11T08:16:25.866Z,288.357
2023-02-11T08:17:25.769Z,296.714
2023-02-11T08:18:25.807Z,392.5
2023-02-11T08:19:25.842Z,426.714
2023-02-11T08:20:25.876Z,485.857
2023-02-11T08:21:25.906Z,507.5
2023-02-11T08:22:25.954Z,453.357
2023-02-11T08:23:25.987Z,539.214
2023-02-11T08:24:26.027Z,501.714
2023-02-11T08:25:26.049Z,518.357
2023-02-11T08:26:26.090Z,420
2023-02-11T08:27:26.128Z,386.714
2023-02-11T08:28:26.239Z,407.5
2023-02-11T08:29:26.179Z,385
2023-02-11T08:30:27.481Z,380.857
2023-02-11T08:31:26.467Z,381.714
2023-02-11T08:32:26.277Z,399.214
2023-02-11T08:33:26.316Z,367.5
2023-02-11T08:34:26.349Z,375
2023-02-11T08:35:26.382Z,369.214
2023-02-11T08:36:26.413Z,376.714
2023-02-11T08:37:26.452Z,347.5
2023-02-11T08:38:26.498Z,311.714
2023-02-11T08:39:26.544Z,285.857
2023-02-11T08:40:26.559Z,338.357
2023-02-11T08:41:26.590Z,328.357
2023-02-11T08:42:26.628Z,354.214
2023-02-11T08:43:26.665Z,373.357
2023-02-11T08:44:26.699Z,311.714
2023-02-11T08:45:26.723Z,296.714
2023-02-11T08:46:26.832Z,285.857
2023-02-11T08:47:26.790Z,295.857
2023-02-11T08:48:26.827Z,302.5
2023-02-11T08:49:26.871Z,359.214
2023-02-11T08:50:26.907Z,330
2023-02-11T08:51:26.939Z,277.5
2023-02-11T08:52:26.973Z,276.714
2023-02-11T08:53:27.015Z,291.714
2023-02-11T08:54:27.050Z,393.357
2023-02-11T08:55:27.089Z,490
2023-02-11T08:56:27.118Z,646.714
2023-02-11T08:57:27.163Z,515
2023-02-11T08:58:27.198Z,533.357
2023-02-11T08:59:27.225Z,525.857
2023-02-11T09:00:27.284Z,592.5
2023-02-11T09:01:27.365Z,535.857
2023-02-11T09:02:27.408Z,485
2023-02-11T09:03:27.365Z,470.857
2023-02-11T09:04:27.401Z,493.357
2023-02-11T09:05:27.442Z,457.5
2023-02-11T09:06:27.475Z,459.214
2023-02-11T09:07:27.510Z,498.357
2023-02-11T09:08:27.570Z,430.857
2023-02-11T09:09:27.597Z,463.357
2023-02-11T09:10:27.628Z,464.214
2023-02-11T09:11:27.668Z,450
2023-02-11T09:12:27.703Z,530
2023-02-11T09:13:27.735Z,524.214
2023-02-11T09:14:27.767Z,516.714
2023-02-11T09:15:27.793Z,551.714
2023-02-11T09:16:28.042Z,543.357
2023-02-11T09:17:27.869Z,525.857
2023-02-11T09:18:27.898Z,469.214
2023-02-11T09:19:27.944Z,475
2023-02-11T09:20:27.960Z,496.714
2023-02-11T09:21:27.997Z,520.857
2023-02-11T09:22:28.045Z,474.214
2023-02-11T09:23:28.075Z,450
2023-02-11T09:24:28.120Z,544.214
2023-02-11T09:25:28.154Z,463.357
2023-02-11T09:26:28.180Z,457.5
2023-02-11T09:27:28.209Z,475
2023-02-11T09:28:28.302Z,510.857
2023-02-11T09:29:28.277Z,533.357
2023-02-11T09:30:28.375Z,515
2023-02-11T09:31:28.510Z,510.857
2023-02-11T09:32:28.384Z,565.857
2023-02-11T09:33:28.420Z,552.5
2023-02-11T09:34:28.454Z,489.214
2023-02-11T09:35:28.477Z,548.357
2023-02-11T09:36:28.504Z,597.5
2023-02-11T09:37:28.543Z,585
2023-02-11T09:38:28.565Z,500.857
2023-02-11T09:39:28.607Z,480.857
2023-02-11T09:40:28.650Z,435.857
2023-02-11T09:41:28.680Z,445.857
2023-02-11T09:42:28.716Z,460
2023-02-11T09:43:28.744Z,447.5
2023-02-11T09:44:28.791Z,401.714
2023-02-11T09:45:28.825Z,405.857
2023-02-11T09:46:28.938Z,474.214
2023-02-11T09:47:28.899Z,551.714
2023-02-11T09:48:28.912Z,549.214
2023-02-11T09:49:28.945Z,565
2023-02-11T09:50:28.986Z,608.357
2023-02-11T09:51:29.010Z,613.357
2023-02-11T09:52:29.046Z,578.357
2023-02-11T09:53:29.092Z,577.5
2023-02-11T09:54:29.118Z,565.857
2023-02-11T09:55:29.141Z,627.5
2023-02-11T09:56:29.202Z,626.714
2023-02-11T09:57:29.434Z,625
2023-02-11T09:58:29.265Z,589.214
2023-02-11T09:59:29.278Z,565.857
2023-02-11T10:00:29.299Z,579.214
2023-02-11T10:01:29.393Z,540
2023-02-11T10:02:29.394Z,519.214
2023-02-11T10:03:29.413Z,487.5
2023-02-11T10:04:29.527Z,472.5
2023-02-11T10:05:29.480Z,474.214
2023-02-11T10:06:29.511Z,464.214
2023-02-11T10:07:29.543Z,605.857
2023-02-11T10:08:29.584Z,504.214
2023-02-11T10:09:29.636Z,494.214
2023-02-11T10:10:29.657Z,594.214
2023-02-11T10:11:31.958Z,592.5
2023-02-11T10:12:29.724Z,591.714
2023-02-11T10:13:29.773Z,590
2023-02-11T10:14:29.790Z,522.5
2023-02-11T10:15:29.861Z,596.714
2023-02-11T10:16:29.855Z,553.357
2023-02-11T10:17:29.897Z,589.214
2023-02-11T10:18:29.927Z,708.357
2023-02-11T10:19:29.969Z,744.214
2023-02-11T10:20:30.019Z,633.357
2023-02-11T10:21:30.037Z,565.857
2023-02-11T10:22:30.068Z,610
2023-02-11T10:23:30.098Z,592.5
2023-02-11T10:24:30.138Z,541.714
2023-02-11T10:25:30.173Z,527.5
2023-02-11T10:26:30.226Z,533.357
2023-02-11T10:27:30.248Z,620.857
2023-02-11T10:28:30.382Z,640.857
2023-02-11T10:29:30.313Z,592.5
2023-02-11T10:30:30.400Z,580
2023-02-11T10:31:30.550Z,490.857
2023-02-11T10:32:30.414Z,490.857
2023-02-11T10:33:30.442Z,576.714
2023-02-11T10:34:30.485Z,509.214
2023-02-11T10:35:30.521Z,504.214
2023-02-11T10:36:30.555Z,490
2023-02-11T10:37:30.583Z,522.5
2023-02-11T10:38:30.629Z,522.5
2023-02-11T10:39:30.648Z,566.714
2023-02-11T10:40:30.682Z,652.5
2023-02-11T10:41:30.713Z,563.357
2023-02-11T10:42:30.757Z,640
2023-02-11T10:43:30.777Z,668.357
2023-02-11T10:44:30.812Z,673.357
2023-02-11T10:45:30.840Z,620.857
2023-02-11T10:46:30.912Z,626.714
2023-02-11T10:47:30.910Z,595
2023-02-11T10:48:30.944Z,668.357
2023-02-11T10:49:30.977Z,550
2023-02-11T10:50:31.019Z,615
2023-02-11T10:51:31.047Z,587.5
2023-02-11T10:52:31.067Z,517.5
2023-02-11T10:53:31.111Z,572.5
2023-02-11T10:54:31.144Z,567.5
2023-02-11T10:55:31.162Z,528.357
2023-02-11T10:56:31.199Z,600
2023-02-11T10:57:31.240Z,570
2023-02-11T10:58:31.265Z,538.357
2023-02-11T10:59:31.309Z,574.214
2023-02-11T11:00:31.341Z,514.214
2023-02-11T11:01:31.391Z,580
2023-02-11T11:02:31.398Z,520
2023-02-11T11:03:31.436Z,617.5
2023-02-11T11:04:31.529Z,547.5
2023-02-11T11:05:31.528Z,481.714
2023-02-11T11:06:31.544Z,460
2023-02-11T11:07:31.587Z,575
2023-02-11T11:08:31.618Z,655.857
2023-02-11T11:09:31.659Z,520.857
2023-02-11T11:10:31.704Z,669.214
2023-02-11T11:11:31.732Z,578.357
2023-02-11T11:12:31.762Z,552.5
2023-02-11T11:13:31.788Z,560.857
2023-02-11T11:14:31.827Z,455.857
2023-02-11T11:15:31.862Z,524.214
2023-02-11T11:16:31.901Z,505
2023-02-11T11:17:31.940Z,536.714
2023-02-11T11:18:31.981Z,513.357
2023-02-11T11:19:32.015Z,608.357
2023-02-11T11:20:32.037Z,663.357
2023-02-11T11:21:32.075Z,642.5
2023-02-11T11:22:32.131Z,700.857
2023-02-11T11:23:32.148Z,655
2023-02-11T11:24:32.194Z,721.714
2023-02-11T11:25:32.221Z,643.357
2023-02-11T11:26:32.249Z,635
2023-02-11T11:27:32.283Z,565
2023-02-11T11:28:32.361Z,625.857
2023-02-11T11:29:32.350Z,483.357
2023-02-11T11:30:32.433Z,517.5
2023-02-11T11:31:32.510Z,420
2023-02-11T11:32:32.446Z,480
2023-02-11T11:33:32.487Z,492.5
2023-02-11T11:34:32.525Z,415
2023-02-11T11:35:32.560Z,554.214
2023-02-11T11:36:32.589Z,526.714
2023-02-11T11:37:32.643Z,512.5
2023-02-11T11:38:32.656Z,690
2023-02-11T11:39:32.686Z,625
2023-02-11T11:40:32.739Z,719.214
2023-02-11T11:41:32.776Z,710
2023-02-11T11:42:32.801Z,677.5
2023-02-11T11:43:32.831Z,755
2023-02-11T11:44:32.858Z,715.857
2023-02-11T11:45:32.900Z,851.714
2023-02-11T11:46:32.998Z,685
2023-02-11T11:47:32.965Z,705.857
2023-02-11T11:48:33.016Z,704.214
2023-02-11T11:49:33.055Z,620
2023-02-11T11:50:33.062Z,554.214
2023-02-11T11:51:33.088Z,521.714
2023-02-11T11:52:33.148Z,555.857
2023-02-11T11:53:33.151Z,570
2023-02-11T11:54:33.180Z,553.357
2023-02-11T11:55:33.225Z,489.214
2023-02-11T11:56:33.247Z,545
2023-02-11T11:57:33.292Z,582.5
2023-02-11T11:58:33.324Z,559.214
2023-02-11T11:59:33.363Z,622.5
2023-02-11T12:00:33.394Z,693.357
2023-02-11T12:01:33.472Z,647.5
2023-02-11T12:02:33.463Z,539.214
2023-02-11T12:03:33.493Z,621.714
2023-02-11T12:04:33.517Z,597.5
2023-02-11T12:05:33.555Z,715
2023-02-11T12:06:33.583Z,755
2023-02-11T12:07:33.609Z,730.857
2023-02-11T12:08:33.658Z,917.5
2023-02-11T12:09:33.680Z,1000.86
2023-02-11T12:10:33.703Z,866.714
2023-02-11T12:11:33.746Z,584.214
2023-02-11T12:12:33.770Z,620.857
2023-02-11T12:13:33.806Z,555.857
2023-02-11T12:14:33.845Z,395
2023-02-11T12:15:33.873Z,406.714
2023-02-11T12:16:33.954Z,435
2023-02-11T12:17:33.935Z,330
2023-02-11T12:18:33.969Z,309.214
2023-02-11T12:19:33.998Z,338.357
2023-02-11T12:20:34.040Z,426.714
2023-02-11T12:21:34.064Z,535
2023-02-11T12:22:34.105Z,606.714
2023-02-11T12:23:34.132Z,665.857
2023-02-11T12:24:34.165Z,722.5
2023-02-11T12:25:34.202Z,670
2023-02-11T12:26:34.239Z,701.714
2023-02-11T12:27:34.276Z,617.5
2023-02-11T12:28:34.361Z,655
2023-02-11T12:29:34.351Z,648.357
2023-02-11T12:30:34.421Z,840.857
2023-02-11T12:31:34.503Z,833.357
2023-02-11T12:32:34.453Z,842.5
2023-02-11T12:33:34.487Z,702.5
2023-02-11T12:34:34.523Z,652.5
2023-02-11T12:35:34.563Z,640
2023-02-11T12:36:34.611Z,676.714
2023-02-11T12:37:34.648Z,789.214
2023-02-11T12:38:34.677Z,785
2023-02-11T12:39:34.703Z,739.214
2023-02-11T12:40:34.730Z,776.714
2023-02-11T12:41:34.775Z,670
2023-02-11T12:42:34.808Z,515
2023-02-11T12:43:34.844Z,442.5
2023-02-11T12:44:34.875Z,708.357
2023-02-11T12:45:34.941Z,675
2023-02-11T12:46:34.944Z,650.857
2023-02-11T12:47:34.988Z,749.214
2023-02-11T12:48:35.910Z,835.857
2023-02-11T12:49:35.064Z,971.714
2023-02-11T12:50:35.108Z,835
2023-02-11T12:51:35.131Z,723.357
2023-02-11T12:52:35.167Z,678.357
2023-02-11T12:53:35.199Z,746.714
2023-02-11T12:54:35.232Z,808.357
2023-02-11T12:55:35.263Z,733.357
2023-02-11T12:56:35.291Z,896.714
2023-02-11T12:57:35.329Z,954.214
2023-02-11T12:58:44.604Z,833.357
2023-02-11T12:59:35.403Z,696.714
2023-02-11T13:00:35.444Z,748.357
2023-02-11T13:01:35.579Z,672.5
2023-02-11T13:02:35.606Z,768.357
2023-02-11T13:03:35.538Z,774.214
2023-02-11T13:04:35.583Z,686.714
2023-02-11T13:05:35.598Z,832.5
2023-02-11T13:06:35.640Z,808.357
2023-02-11T13:07:35.683Z,900.857
2023-02-11T13:08:35.697Z,628.357
2023-02-11T13:09:35.752Z,608.357
2023-02-11T13:10:35.780Z,550.857
2023-02-11T13:11:35.795Z,552.5
2023-02-11T13:12:35.820Z,662.5
2023-02-11T13:13:35.864Z,600.857
2023-02-11T13:14:35.888Z,631.714
2023-02-11T13:15:35.914Z,620.857
2023-02-11T13:16:36.079Z,646.714
2023-02-11T13:17:35.987Z,699.214
2023-02-11T13:18:36.023Z,800
2023-02-11T13:19:36.067Z,910
2023-02-11T13:20:36.104Z,697.5
2023-02-11T13:21:36.127Z,683.357
2023-02-11T13:22:36.161Z,504.214
2023-02-11T13:23:36.191Z,413.357
2023-02-11T13:24:36.229Z,430
2023-02-11T13:25:36.260Z,495
2023-02-11T13:26:36.293Z,459.214
2023-02-11T13:27:36.334Z,555.857
2023-02-11T13:28:36.600Z,570.857
2023-02-11T13:29:36.399Z,480.857
2023-02-11T13:30:36.491Z,395
2023-02-11T13:31:36.629Z,445
2023-02-11T13:32:36.508Z,515
2023-02-11T13:33:36.537Z,587.5
2023-02-11T13:34:36.565Z,567.5
2023-02-11T13:35:36.601Z,443.357
2023-02-11T13:36:36.636Z,409.214
2023-02-11T13:37:36.674Z,328.357
2023-02-11T13:38:36.703Z,399.214
2023-02-11T13:39:36.724Z,366.714
2023-02-11T13:40:36.803Z,365
2023-02-11T13:41:36.801Z,338.357
2023-02-11T13:42:36.834Z,373.357
2023-02-11T13:43:36.874Z,332.5
2023-02-11T13:44:36.890Z,384.214
2023-02-11T13:45:36.957Z,336.714
2023-02-11T13:46:36.960Z,392.5
2023-02-11T13:47:36.999Z,431.714
2023-02-11T13:48:37.030Z,343.357
2023-02-11T13:49:37.051Z,490.857
2023-02-11T13:50:37.093Z,438.357
2023-02-11T13:51:37.150Z,469.214
2023-02-11T13:52:37.165Z,473.357
2023-02-11T13:53:37.196Z,474.214
2023-02-11T13:54:37.221Z,455
2023-02-11T13:55:37.257Z,484.214
2023-02-11T13:56:37.299Z,393.357
2023-02-11T13:57:37.340Z,543.357
2023-02-11T13:58:37.375Z,418.357
2023-02-11T13:59:37.402Z,408.357
2023-02-11T14:00:37.439Z,378.357
2023-02-11T14:01:37.483Z,337.5
2023-02-11T14:02:37.556Z,411.714
2023-02-11T14:03:37.535Z,344.214
2023-02-11T14:04:37.574Z,410.857
2023-02-11T14:05:37.609Z,374.214
2023-02-11T14:06:37.640Z,379.214
2023-02-11T14:07:37.687Z,380
2023-02-11T14:08:39.248Z,405
2023-02-11T14:09:37.737Z,390.857
2023-02-11T14:10:37.780Z,326.714
2023-02-11T14:11:37.810Z,384.214
2023-02-11T14:12:37.846Z,432.5
2023-02-11T14:13:37.872Z,431.714
2023-02-11T14:14:37.915Z,495.857
2023-02-11T14:15:37.955Z,460.857
2023-02-11T14:16:39.046Z,457.5
2023-02-11T14:17:38.018Z,416.714
2023-02-11T14:18:38.051Z,381.714
2023-02-11T14:19:38.085Z,406.714
2023-02-11T14:20:38.114Z,353.357
2023-02-11T14:21:38.231Z,327.5
2023-02-11T14:22:38.191Z,449.214
2023-02-11T14:23:38.226Z,373.357
2023-02-11T14:24:38.260Z,409.214
2023-02-11T14:25:38.281Z,454.214
2023-02-11T14:26:38.319Z,477.5
2023-02-11T14:27:38.361Z,383.357
2023-02-11T14:28:38.482Z,480
2023-02-11T14:29:38.428Z,439.214
2023-02-11T14:30:38.564Z,358.357
2023-02-11T14:31:38.596Z,371.714
2023-02-11T14:32:38.525Z,381.714
2023-02-11T14:33:38.561Z,375
2023-02-11T14:34:38.595Z,344.214
2023-02-11T14:35:38.635Z,250.857
2023-02-11T14:36:38.662Z,281.714
2023-02-11T14:37:38.695Z,284.214
2023-02-11T14:38:38.733Z,255
2023-02-11T14:39:38.788Z,331.714
2023-02-11T14:40:38.808Z,275
2023-02-11T14:41:38.823Z,240.857
2023-02-11T14:42:38.860Z,249.214
2023-02-11T14:43:38.896Z,297.5
2023-02-11T14:44:38.936Z,256.714
2023-02-11T14:45:38.963Z,218.357
2023-02-11T14:46:39.050Z,234.214
2023-02-11T14:47:39.023Z,225
2023-02-11T14:48:39.078Z,269.214
2023-02-11T14:49:39.088Z,259.214
2023-02-11T14:50:39.126Z,267.5
2023-02-11T14:51:39.156Z,292.5
2023-02-11T14:52:39.190Z,296.714
2023-02-11T14:53:39.230Z,310
2023-02-11T14:54:39.277Z,217.5
2023-02-11T14:55:39.295Z,204.214
2023-02-11T14:56:39.325Z,249.214
2023-02-11T14:57:39.362Z,230
2023-02-11T14:58:39.396Z,250.857
2023-02-11T14:59:39.532Z,270
2023-02-11T15:00:39.463Z,260
2023-02-11T15:01:39.548Z,234.214
2023-02-11T15:02:39.556Z,189.214
2023-02-11T15:03:39.559Z,208.357
2023-02-11T15:04:39.592Z,230
2023-02-11T15:05:39.636Z,210
2023-02-11T15:06:39.659Z,263.357
2023-02-11T15:07:39.700Z,187.5
2023-02-11T15:08:39.744Z,262.5
2023-02-11T15:09:39.780Z,166.714
2023-02-11T15:10:39.808Z,213.357
2023-02-11T15:11:39.844Z,205
2023-02-11T15:12:39.881Z,157.5
2023-02-11T15:13:39.911Z,160
2023-02-11T15:14:39.954Z,160
2023-02-11T15:15:39.997Z,154.214
2023-02-11T15:16:40.014Z,173.357
2023-02-11T15:17:40.061Z,130
2023-02-11T15:18:40.083Z,172.5
2023-02-11T15:19:40.114Z,176.714
2023-02-11T15:20:40.156Z,135.857
2023-02-11T15:21:40.194Z,167.5
2023-02-11T15:22:40.221Z,166.714
2023-02-11T15:23:40.256Z,169.214
2023-02-11T15:24:40.293Z,185
2023-02-11T15:25:40.352Z,165.857
2023-02-11T15:26:40.371Z,163.357
2023-02-11T15:27:40.419Z,149.214
2023-02-11T15:28:40.511Z,169.214
2023-02-11T15:29:40.479Z,167.5
2023-02-11T15:30:40.511Z,163.357
2023-02-11T15:31:40.669Z,188.357
2023-02-11T15:32:40.596Z,170.857
2023-02-11T15:33:40.635Z,181.714
2023-02-11T15:34:40.659Z,180.857
2023-02-11T15:35:40.705Z,132.5
2023-02-11T15:36:40.738Z,177.5
2023-02-11T15:37:40.781Z,144.214
2023-02-11T15:38:40.827Z,155.857
2023-02-11T15:39:40.856Z,173.357
2023-02-11T15:40:40.882Z,147.5
2023-02-11T15:41:40.915Z,114.214
2023-02-11T15:42:51.851Z,119.214
2023-02-11T15:43:40.989Z,139.214
2023-02-11T15:44:41.014Z,106.714
2023-02-11T15:45:41.046Z,102.5
2023-02-11T15:46:41.138Z,130.857
2023-02-11T15:47:41.121Z,88.3571
2023-02-11T15:48:41.147Z,140.857
2023-02-11T15:49:41.185Z,85
2023-02-11T15:50:41.213Z,88.3571
2023-02-11T15:51:41.245Z,82.5
2023-02-11T15:52:41.284Z,63.3571
2023-02-11T15:53:41.320Z,66.7143
2023-02-11T15:54:41.379Z,55.8571
2023-02-11T15:55:41.383Z,68.3571
2023-02-11T15:56:41.398Z,63.3571
2023-02-11T15:57:41.436Z,50
2023-02-11T15:58:41.472Z,49.2143
2023-02-11T15:59:41.502Z,42.5
2023-02-11T16:00:41.532Z,42.5
2023-02-11T16:01:41.629Z,41.7143
2023-02-11T16:02:41.610Z,40
2023-02-11T16:03:41.636Z,39.2143
2023-02-11T16:04:41.663Z,31.7143
2023-02-11T16:05:41.696Z,28.3571
2023-02-11T16:06:41.736Z,27.5
2023-02-11T16:07:41.774Z,24.2143
2023-02-11T16:08:41.798Z,24.2143
2023-02-11T16:09:41.826Z,20.8571
2023-02-11T16:10:41.858Z,20
2023-02-11T16:11:41.887Z,19.2143
2023-02-11T16:12:41.923Z,15
2023-02-11T16:13:41.971Z,13.3571
2023-02-11T16:14:42.010Z,10.8571
2023-02-11T16:15:42.036Z,9.21429
2023-02-11T16:16:42.071Z,10.8571
2023-02-11T16:17:42.101Z,10
2023-02-11T16:18:47.044Z,10
2023-02-11T16:19:42.178Z,7.5
2023-02-11T16:20:42.209Z,6.71429
2023-02-11T16:21:42.265Z,5.85714
2023-02-11T16:22:42.285Z,5
2023-02-11T16:23:42.345Z,5
2023-02-11T16:24:42.338Z,4.21429
2023-02-11T16:25:42.378Z,2.5
2023-02-11T16:26:42.416Z,3.35714
2023-02-11T16:27:42.445Z,1.71429
2023-02-11T16:28:42.483Z,0.857143
2023-02-11T16:29:42.517Z,0.857143
2023-02-11T16:30:42.582Z,0.857143
